Time;durP1;ratioP1;P1;durP2;ratioP2;P2;SDS_P1;SDS_P2;PMS_P1;PMS_P2;Temp;Humidity;BMP_temperature;BMP_pressure;BME280_temperature;BME280_humidity;BME280_pressure;Samples;Min_cycle;Max_cycle;Signal;HPM_P1;HPM_P2
2022/10/28 00:01:08;;;;;;;12.85;7.00;;;;;;;14.44;100.00;101736.66;5074936;28;20024;-35
2022/10/28 00:03:36;;;;;;;;;;;;;;;14.60;100.00;101736.00;5074991;28;20044;-35
2022/10/28 00:06:10;;;;;;;10.55;6.65;;;;;;;14.52;100.00;101741.78;5074767;28;20300;-35
2022/10/28 00:08:36;;;;;;;11.85;7.32;;;;;;;14.51;100.00;101740.13;5074981;28;20036;-34
2022/10/28 00:11:13;;;;;;;11.05;7.20;;;;;;;14.43;100.00;101726.84;5074644;28;20036;-35
2022/10/28 00:13:40;;;;;;;10.45;6.75;;;;;;;14.50;100.00;101733.03;5075120;28;20028;-35
2022/10/28 00:16:11;;;;;;;17.88;8.98;;;;;;;14.52;100.00;101739.06;5074457;28;20472;-35
2022/10/28 00:18:37;;;;;;;14.13;7.63;;;;;;;14.52;100.00;101733.63;5074491;28;20035;-35
2022/10/28 00:21:04;;;;;;;;;;;;;;;14.60;100.00;101735.19;5074567;28;20032;-35
2022/10/28 00:23:29;;;;;;;15.68;7.95;;;;;;;14.53;100.00;101737.16;5074289;28;19952;-35
2022/10/28 00:25:55;;;;;;;10.70;7.07;;;;;;;14.52;100.00;101733.63;5073533;28;20031;-35
2022/10/28 00:28:20;;;;;;;14.57;6.68;;;;;;;14.52;100.00;101738.25;5074532;28;20048;-35
2022/10/28 00:30:45;;;;;;;;;;;;;;;14.57;100.00;101741.09;5074571;28;20421;-35
2022/10/28 00:33:10;;;;;;;11.97;7.27;;;;;;;14.38;100.00;101732.97;5074499;28;20421;-35
2022/10/28 00:35:36;;;;;;;13.73;7.70;;;;;;;14.38;100.00;101738.44;5074192;28;20032;-35
2022/10/28 00:38:01;;;;;;;11.80;6.83;;;;;;;14.27;100.00;101731.09;5074630;28;20263;-35
2022/10/28 00:40:26;;;;;;;11.77;6.70;;;;;;;14.31;100.00;101734.16;5073801;28;20274;-35
2022/10/28 00:42:52;;;;;;;12.38;6.93;;;;;;;14.23;100.00;101738.03;5074213;28;20035;-35
2022/10/28 00:45:17;;;;;;;9.57;6.60;;;;;;;14.26;100.00;101724.00;5074130;28;20438;-35
2022/10/28 00:47:54;;;;;;;10.60;6.93;;;;;;;14.24;100.00;101725.28;5074369;28;20029;-35
2022/10/28 00:50:19;;;;;;;;;;;;;;;14.30;100.00;101725.19;5074300;28;20449;-34
2022/10/28 00:52:49;;;;;;;12.90;6.82;;;;;;;14.21;100.00;101723.03;5073570;28;19908;-35
2022/10/28 00:55:16;;;;;;;10.45;6.53;;;;;;;14.19;100.00;101720.53;5073638;28;20036;-35
2022/10/28 00:57:44;;;;;;;16.10;6.80;;;;;;;14.06;100.00;101688.13;5073535;28;20028;-35
2022/10/28 01:00:11;;;;;;;14.07;6.80;;;;;;;14.23;100.00;101708.13;5073921;28;20033;-35
2022/10/28 01:02:43;;;;;;;11.60;7.30;;;;;;;14.25;100.00;101705.16;5073176;28;20033;-35
2022/10/28 01:05:10;;;;;;;12.70;7.00;;;;;;;14.23;100.00;101702.69;5073545;28;20063;-35
2022/10/28 01:07:36;;;;;;;12.18;6.82;;;;;;;14.21;100.00;101701.28;5074072;28;20036;-35
2022/10/28 01:10:01;;;;;;;10.50;6.57;;;;;;;14.14;100.00;101668.72;5073468;28;20036;-35
2022/10/28 01:12:53;;;;;;;17.20;6.75;;;;;;;14.19;100.00;101679.72;5073454;28;20035;-35
2022/10/28 01:15:40;;;;;;;14.75;7.15;;;;;;;14.16;100.00;101689.19;5051148;28;20548;-35
2022/10/28 01:18:17;;;;;;;12.07;6.80;;;;;;;14.12;100.00;101690.72;5051256;28;20572;-35
2022/10/28 01:21:04;;;;;;;12.77;6.28;;;;;;;14.15;100.00;101689.41;5051218;28;20049;-35
2022/10/28 01:23:40;;;;;;;10.90;6.45;;;;;;;14.11;100.00;101689.06;5050901;28;20040;-35
2022/10/28 01:26:45;;;;;;;9.82;6.30;;;;;;;14.05;100.00;101692.72;5050964;28;20048;-35
2022/10/28 01:29:19;;;;;;;9.85;6.70;;;;;;;13.88;100.00;101678.97;5051529;28;20029;-35
2022/10/28 01:32:06;;;;;;;10.40;6.85;;;;;;;13.90;100.00;101687.72;5051013;28;20044;-35
2022/10/28 01:34:57;;;;;;;8.35;5.97;;;;;;;13.83;100.00;101689.72;5051034;28;20191;-35
2022/10/28 01:37:54;;;;;;;12.55;6.35;;;;;;;13.81;100.00;101689.13;5051396;28;20060;-35
2022/10/28 01:40:32;;;;;;;12.18;6.50;;;;;;;13.77;100.00;101681.66;5038860;28;20452;-35
2022/10/28 01:43:09;;;;;;;14.60;6.93;;;;;;;13.73;100.00;101685.91;5051193;28;20128;-44
2022/10/28 01:46:07;;;;;;;10.65;6.70;;;;;;;13.70;100.00;101679.03;5051190;28;20405;-35
2022/10/28 01:48:52;;;;;;;12.20;6.85;;;;;;;13.56;100.00;101659.34;5050856;28;20105;-35
2022/10/28 01:52:00;;;;;;;10.45;7.05;;;;;;;13.68;100.00;101675.72;5054068;28;20162;-35
2022/10/28 01:54:29;;;;;;;12.23;6.68;;;;;;;13.67;100.00;101686.84;5050843;28;20064;-35
2022/10/28 01:56:56;;;;;;;12.60;7.18;;;;;;;13.61;100.00;101691.28;5050476;28;20124;-35
2022/10/28 01:59:25;;;;;;;10.32;6.65;;;;;;;13.60;100.00;101687.75;5050943;28;20033;-35
2022/10/28 02:01:51;;;;;;;11.75;5.90;;;;;;;13.56;100.00;101663.97;5050325;28;20033;-35
2022/10/28 02:04:16;;;;;;;11.15;6.97;;;;;;;13.63;100.00;101676.41;5050473;28;20461;-35
2022/10/28 02:06:45;;;;;;;11.00;6.60;;;;;;;13.63;100.00;101665.53;5050430;28;20033;-35
2022/10/28 02:09:16;;;;;;;14.23;7.55;;;;;;;13.64;100.00;101671.81;5055665;28;20028;-35
2022/10/28 02:11:51;;;;;;;13.30;7.20;;;;;;;13.61;100.00;101672.25;5057251;28;20033;-35
2022/10/28 02:14:23;;;;;;;12.45;7.53;;;;;;;13.62;100.00;101674.75;5057571;28;20036;-35
2022/10/28 02:16:57;;;;;;;12.30;7.25;;;;;;;13.55;100.00;101657.72;5057329;28;20136;-35
2022/10/28 02:19:44;;;;;;;12.05;6.95;;;;;;;13.57;100.00;101671.09;5057524;28;20041;-35
2022/10/28 02:22:21;;;;;;;8.85;5.95;;;;;;;13.39;100.00;101674.66;5056881;28;20037;-35
2022/10/28 02:25:12;;;;;;;11.02;6.45;;;;;;;13.37;100.00;101661.31;5057436;28;20467;-35
2022/10/28 02:27:47;;;;;;;9.13;6.60;;;;;;;13.46;100.00;101669.97;5056960;28;20547;-35
2022/10/28 02:30:36;;;;;;;9.50;6.07;;;;;;;13.38;100.00;101662.16;5070148;28;20074;-35
2022/10/28 02:33:05;;;;;;;13.18;6.30;;;;;;;13.44;100.00;101671.25;5079727;28;20024;-35
2022/10/28 02:35:37;;;;;;;10.88;6.22;;;;;;;13.43;100.00;101675.88;5079647;28;20047;-35
2022/10/28 02:38:13;;;;;;;12.50;6.95;;;;;;;13.38;100.00;101673.00;5079074;28;20487;-35
2022/10/28 02:40:40;;;;;;;14.77;6.80;;;;;;;13.29;100.00;101667.06;5078808;28;20063;-35
2022/10/28 02:43:09;;;;;;;10.50;6.72;;;;;;;13.40;100.00;101668.16;5079048;28;20108;-35
2022/10/28 02:45:41;;;;;;;11.55;6.75;;;;;;;13.31;100.00;101643.19;5078874;28;20060;-35
2022/10/28 02:48:13;;;;;;;11.43;6.50;;;;;;;13.38;100.00;101662.97;5078774;28;20031;-35
2022/10/28 02:50:44;;;;;;;11.73;6.47;;;;;;;13.37;100.00;101655.03;5079213;28;20052;-35
2022/10/28 02:53:21;;;;;;;10.07;5.68;;;;;;;13.24;100.00;101676.97;5079704;28;20342;-34
2022/10/28 02:55:52;;;;;;;;;;;;;;;13.35;100.00;101668.03;5078397;28;20021;-35
2022/10/28 02:58:17;;;;;;;11.68;6.63;;;;;;;13.27;100.00;101663.72;5078891;28;19909;-35
2022/10/28 03:00:44;;;;;;;10.68;6.45;;;;;;;13.21;100.00;101661.91;5078588;28;20035;-34
2022/10/28 03:03:09;;;;;;;11.63;5.93;;;;;;;13.11;100.00;101657.00;5079170;28;20108;-35
2022/10/28 03:05:35;;;;;;;10.60;6.00;;;;;;;13.21;100.00;101659.19;5078786;28;20578;-36
2022/10/28 03:08:00;;;;;;;11.90;5.90;;;;;;;13.23;100.00;101659.84;5079170;28;20082;-36
2022/10/28 03:10:25;;;;;;;8.57;5.77;;;;;;;13.12;100.00;101652.41;5078012;28;20279;-35
2022/10/28 03:12:51;;;;;;;11.43;6.20;;;;;;;13.18;100.00;101653.41;5079395;28;20067;-36
2022/10/28 03:15:16;;;;;;;12.57;6.07;;;;;;;13.15;100.00;101647.34;5079029;28;20750;-35
2022/10/28 03:17:41;;;;;;;9.10;6.18;;;;;;;13.08;100.00;101652.06;5078511;28;20545;-35
2022/10/28 03:20:07;;;;;;;12.73;6.47;;;;;;;13.10;100.00;101649.94;5075795;28;20024;-35
2022/10/28 03:22:33;;;;;;;11.38;6.38;;;;;;;13.09;100.00;101650.16;5075499;28;20025;-35
2022/10/28 03:24:58;;;;;;;15.63;6.83;;;;;;;13.05;100.00;101641.63;5075248;28;20029;-35
2022/10/28 03:27:23;;;;;;;12.43;6.43;;;;;;;13.02;100.00;101650.22;5075860;28;20028;-35
2022/10/28 03:29:49;;;;;;;9.33;5.67;;;;;;;13.03;100.00;101649.19;5075993;28;20293;-35
2022/10/28 03:32:14;;;;;;;11.77;6.43;;;;;;;12.90;100.00;101646.63;5075736;28;20414;-35
2022/10/28 03:34:39;;;;;;;10.90;5.80;;;;;;;13.00;100.00;101652.34;5075133;28;20110;-35
2022/10/28 03:37:04;;;;;;;11.52;6.20;;;;;;;13.00;100.00;101654.25;5075785;28;20120;-35
2022/10/28 03:39:30;;;;;;;10.67;6.00;;;;;;;12.97;100.00;101650.06;5073944;28;20033;-35
2022/10/28 03:41:55;;;;;;;11.13;6.03;;;;;;;12.97;100.00;101643.81;5075689;28;20259;-35
2022/10/28 03:44:20;;;;;;;9.33;5.53;;;;;;;12.93;100.00;101642.63;5075088;28;20028;-35
2022/10/28 03:46:46;;;;;;;13.83;6.00;;;;;;;12.92;100.00;101630.09;5075414;28;20738;-35
2022/10/28 03:49:11;;;;;;;10.57;6.13;;;;;;;12.89;100.00;101647.69;5074919;28;20077;-35
2022/10/28 03:51:36;;;;;;;9.37;5.47;;;;;;;12.89;100.00;101651.22;5075228;28;20615;-35
2022/10/28 03:54:02;;;;;;;9.90;5.40;;;;;;;12.89;100.00;101650.41;5074841;28;20075;-35
2022/10/28 03:56:27;;;;;;;10.10;5.25;;;;;;;12.88;100.00;101641.44;5075150;28;20034;-35
2022/10/28 03:58:52;;;;;;;11.53;5.77;;;;;;;12.90;100.00;101641.19;5075362;28;20032;-36
2022/10/28 04:01:18;;;;;;;10.67;5.70;;;;;;;12.87;100.00;101645.19;5074564;28;20293;-35
2022/10/28 04:03:43;;;;;;;11.75;5.50;;;;;;;12.86;100.00;101629.13;5075213;28;20128;-35
2022/10/28 04:06:11;;;;;;;8.80;4.90;;;;;;;12.96;100.00;101636.75;5075001;28;20041;-35
2022/10/28 04:08:37;;;;;;;8.27;5.50;;;;;;;12.84;100.00;101640.22;5075176;28;20062;-35
2022/10/28 04:11:02;;;;;;;13.38;6.05;;;;;;;12.85;100.00;101646.47;5073213;28;20032;-36
2022/10/28 04:13:28;;;;;;;10.15;5.35;;;;;;;12.76;100.00;101645.13;5074187;28;20032;-35
2022/10/28 04:15:53;;;;;;;10.33;5.30;;;;;;;12.82;100.00;101649.63;5074523;28;20115;-35
2022/10/28 04:18:18;;;;;;;9.60;5.33;;;;;;;12.73;100.00;101638.25;5074473;28;20029;-35
2022/10/28 04:20:44;;;;;;;9.87;5.13;;;;;;;12.83;100.00;101648.56;5074855;28;20064;-35
2022/10/28 04:23:15;;;;;;;7.60;5.43;;;;;;;12.68;100.00;101650.84;5074131;28;20025;-35
2022/10/28 04:25:40;;;;;;;11.73;5.43;;;;;;;12.65;100.00;101656.72;5074257;28;20032;-35
2022/10/28 04:28:05;;;;;;;12.50;5.07;;;;;;;12.61;100.00;101645.50;5074757;28;20096;-35
2022/10/28 04:30:31;;;;;;;8.88;4.95;;;;;;;12.55;100.00;101630.94;5074193;28;20032;-35
2022/10/28 04:32:56;;;;;;;12.90;6.30;;;;;;;12.62;100.00;101645.25;5074214;28;20370;-35
2022/10/28 04:35:22;;;;;;;10.27;5.00;;;;;;;12.61;100.00;101642.78;5073918;28;20491;-35
2022/10/28 04:37:47;;;;;;;10.35;5.80;;;;;;;12.54;100.00;101652.84;5073835;28;20334;-35
2022/10/28 04:40:13;;;;;;;9.27;4.77;;;;;;;12.58;100.00;101646.75;5073118;28;20121;-35
2022/10/28 04:42:38;;;;;;;10.30;5.10;;;;;;;12.55;100.00;101652.66;5074237;28;20033;-36
2022/10/28 04:45:04;;;;;;;11.03;5.33;;;;;;;12.54;100.00;101648.28;5073590;28;20282;-36
2022/10/28 04:47:29;;;;;;;11.35;5.68;;;;;;;12.57;100.00;101657.84;5072743;28;20278;-36
2022/10/28 04:49:55;;;;;;;9.63;5.33;;;;;;;12.55;100.00;101655.38;5074561;28;20046;-35
2022/10/28 04:52:20;;;;;;;14.27;5.97;;;;;;;12.49;100.00;101631.84;5074365;28;20263;-35
2022/10/28 04:54:45;;;;;;;8.10;5.23;;;;;;;12.49;100.00;101652.69;5073770;28;20431;-35
2022/10/28 04:57:11;;;;;;;13.23;5.90;;;;;;;12.52;100.00;101646.84;5074290;28;20715;-36
2022/10/28 04:59:36;;;;;;;10.50;5.65;;;;;;;12.47;100.00;101642.09;5073722;28;20034;-35
2022/10/28 05:02:01;;;;;;;8.53;5.07;;;;;;;12.43;100.00;101642.75;5073952;28;20041;-35
2022/10/28 05:04:27;;;;;;;10.55;4.85;;;;;;;12.26;100.00;101627.06;5073169;28;20523;-35
2022/10/28 05:06:52;;;;;;;7.77;5.37;;;;;;;12.41;100.00;101650.28;5073401;28;20107;-35
2022/10/28 05:09:17;;;;;;;10.67;5.50;;;;;;;12.37;100.00;101641.75;5074163;28;20078;-36
2022/10/28 05:11:43;;;;;;;9.43;4.13;;;;;;;12.34;100.00;101645.75;5072282;28;20271;-35
2022/10/28 05:14:08;;;;;;;9.87;5.53;;;;;;;12.34;100.00;101645.75;5073784;28;20417;-36
2022/10/28 05:16:33;;;;;;;8.90;5.10;;;;;;;12.32;100.00;101637.00;5073810;28;20028;-36
2022/10/28 05:18:59;;;;;;;8.77;4.63;;;;;;;12.28;100.00;101643.09;5073119;28;20024;-35
2022/10/28 05:21:24;;;;;;;10.27;5.63;;;;;;;12.33;100.00;101643.25;5071972;28;20123;-35
2022/10/28 05:23:49;;;;;;;12.27;5.55;;;;;;;12.32;100.00;101647.03;5073632;28;20055;-35
2022/10/28 05:26:15;;;;;;;12.93;5.17;;;;;;;12.30;100.00;101651.84;5073769;28;20107;-35
2022/10/28 05:28:40;;;;;;;10.10;5.37;;;;;;;12.13;100.00;101621.75;5073820;28;20025;-35
2022/10/28 05:31:06;;;;;;;16.40;6.50;;;;;;;12.18;100.00;101629.22;5073663;28;20439;-35
2022/10/28 05:33:32;;;;;;;9.20;5.22;;;;;;;12.25;100.00;101629.97;5073475;28;20024;-35
2022/10/28 05:35:58;;;;;;;8.98;4.97;;;;;;;12.19;100.00;101626.28;5072984;28;20062;-36
2022/10/28 05:38:23;;;;;;;11.43;5.60;;;;;;;12.28;100.00;101635.78;5072808;28;20020;-35
2022/10/28 05:40:49;;;;;;;8.73;4.40;;;;;;;12.08;100.00;101632.44;5073053;28;20029;-35
2022/10/28 05:43:14;;;;;;;8.83;4.87;;;;;;;12.01;100.00;101635.22;5072770;28;20742;-35
2022/10/28 05:45:39;;;;;;;12.27;5.40;;;;;;;12.05;100.00;101627.44;5072914;28;20028;-35
2022/10/28 05:48:05;;;;;;;8.50;4.53;;;;;;;11.96;100.00;101640.47;5073269;28;20266;-35
2022/10/28 05:50:30;;;;;;;9.10;5.10;;;;;;;11.91;100.00;101624.03;5072886;28;20035;-35
2022/10/28 05:52:56;;;;;;;12.93;5.60;;;;;;;12.01;100.00;101635.22;5072889;28;20059;-35
2022/10/28 05:55:24;;;;;;;9.63;4.85;;;;;;;12.00;100.00;101630.00;5072559;28;20124;-35
2022/10/28 05:57:51;;;;;;;10.93;5.32;;;;;;;11.95;100.00;101627.94;5073117;28;20116;-35
2022/10/28 06:00:18;;;;;;;10.65;4.80;;;;;;;11.98;100.00;101635.63;5072761;28;20039;-35
2022/10/28 06:02:43;;;;;;;13.30;5.85;;;;;;;11.96;100.00;101623.38;5072713;28;20024;-35
2022/10/28 06:05:09;;;;;;;8.95;5.75;;;;;;;11.85;100.00;101603.22;5073084;28;20048;-35
2022/10/28 06:07:36;;;;;;;10.82;5.63;;;;;;;11.87;100.00;101624.69;5073270;28;20067;-35
2022/10/28 06:10:03;;;;;;;11.75;5.03;;;;;;;11.83;100.00;101621.59;5072402;28;20028;-35
2022/10/28 06:12:29;;;;;;;11.63;5.30;;;;;;;11.98;100.00;101640.22;5073103;28;20055;-35
2022/10/28 06:14:54;;;;;;;12.32;5.55;;;;;;;11.97;100.00;101638.59;5072506;28;20021;-35
2022/10/28 06:17:19;;;;;;;10.97;6.00;;;;;;;11.91;100.00;101626.75;5072472;28;20021;-35
2022/10/28 06:19:44;;;;;;;11.37;5.60;;;;;;;11.91;100.00;101647.56;5073068;28;20043;-35
2022/10/28 06:22:10;;;;;;;9.77;4.87;;;;;;;11.81;100.00;101640.75;5073329;28;20063;-35
2022/10/28 06:24:35;;;;;;;8.55;4.85;;;;;;;11.99;100.00;101655.44;5072652;28;20028;-35
2022/10/28 06:27:01;;;;;;;8.60;5.00;;;;;;;11.98;100.00;101646.47;5072813;28;20032;-35
2022/10/28 06:29:26;;;;;;;11.90;5.33;;;;;;;11.98;100.00;101645.66;5073252;28;20154;-35
2022/10/28 06:31:51;;;;;;;10.57;5.00;;;;;;;11.95;100.00;101641.50;5072775;28;20408;-35
2022/10/28 06:34:17;;;;;;;14.60;5.53;;;;;;;12.05;100.00;101651.84;5072509;28;20036;-35
2022/10/28 06:36:42;;;;;;;15.70;5.70;;;;;;;12.03;100.00;101646.66;5072451;28;20263;-35
2022/10/28 06:39:07;;;;;;;13.67;5.67;;;;;;;12.04;100.00;101640.16;5073238;28;20518;-35
2022/10/28 06:41:33;;;;;;;12.80;5.30;;;;;;;12.07;100.00;101639.75;5072023;28;20279;-35
2022/10/28 06:43:59;;;;;;;9.23;5.00;;;;;;;12.11;100.00;101629.28;5072700;28;20024;-35
2022/10/28 06:46:24;;;;;;;12.25;5.45;;;;;;;12.21;100.00;101648.59;5072326;28;20020;-35
2022/10/28 06:48:50;;;;;;;16.58;5.70;;;;;;;12.22;100.00;101647.53;5072593;28;20108;-35
2022/10/28 06:51:18;;;;;;;11.07;5.20;;;;;;;12.29;100.00;101640.16;5072460;28;20020;-35
2022/10/28 06:53:47;;;;;;;12.23;5.65;;;;;;;12.29;100.00;101628.47;5072929;28;20029;-35
2022/10/28 06:56:13;;;;;;;15.80;5.40;;;;;;;12.34;100.00;101632.19;5075053;28;20055;-35
2022/10/28 06:58:38;;;;;;;12.80;5.30;;;;;;;12.35;100.00;101641.16;5075207;28;20063;-35
2022/10/28 07:01:04;;;;;;;9.27;4.60;;;;;;;12.29;100.00;101639.31;5076434;28;20081;-35
2022/10/28 07:03:31;;;;;;;;;;;;;;;12.37;100.00;101641.75;5076020;28;20443;-35
2022/10/28 07:05:57;;;;;;;15.52;5.32;;;;;;;12.40;100.00;101644.03;5075809;28;20300;-35
2022/10/28 07:08:22;;;;;;;10.57;5.57;;;;;;;12.37;100.00;101645.31;5076078;28;20043;-35
2022/10/28 07:10:56;;;;;;;9.67;5.20;;;;;;;12.46;100.00;101659.41;5076014;28;20029;-35
2022/10/28 07:13:25;;;;;;;8.80;5.22;;;;;;;12.53;100.00;101649.31;5076191;28;20262;-35
2022/10/28 07:15:52;;;;;;;12.15;5.55;;;;;;;12.60;100.00;101647.38;5076065;28;20032;-35
2022/10/28 07:18:17;;;;;;;13.18;6.20;;;;;;;12.63;100.00;101646.91;5076251;28;20040;-35
2022/10/28 07:20:42;;;;;;;10.30;4.82;;;;;;;12.69;100.00;101645.22;5076456;28;20032;-35
2022/10/28 07:23:08;;;;;;;11.37;5.67;;;;;;;12.73;100.00;101643.66;5076021;28;20039;-35
2022/10/28 07:25:33;;;;;;;12.70;5.10;;;;;;;12.72;100.00;101652.06;5075578;28;20025;-35
2022/10/28 07:27:59;;;;;;;13.03;5.73;;;;;;;12.83;100.00;101654.84;5076470;28;20028;-35
2022/10/28 07:30:25;;;;;;;15.07;5.78;;;;;;;12.95;100.00;101665.78;5075479;28;20307;-35
2022/10/28 07:32:51;;;;;;;10.95;5.53;;;;;;;13.07;100.00;101655.81;5076465;28;20081;-35
2022/10/28 07:35:16;;;;;;;11.13;5.82;;;;;;;13.18;100.00;101656.13;5075468;28;20036;-36
2022/10/28 07:37:42;;;;;;;11.38;5.25;;;;;;;13.15;100.00;101647.34;5076253;28;20068;-36
2022/10/28 07:40:07;;;;;;;9.97;5.50;;;;;;;13.35;100.00;101660.69;5075586;28;20029;-35
2022/10/28 07:42:33;;;;;;;12.40;5.93;;;;;;;13.42;100.00;101657.06;5075638;28;20021;-35
2022/10/28 07:44:58;;;;;;;12.13;6.13;;;;;;;13.51;100.00;101656.50;5075487;28;20028;-35
2022/10/28 07:47:24;;;;;;;10.60;5.57;;;;;;;13.59;100.00;101658.91;5076135;28;20037;-35
2022/10/28 07:49:50;;;;;;;11.07;5.68;;;;;;;13.68;100.00;101645.00;5075442;28;20134;-35
2022/10/28 07:52:15;;;;;;;13.38;6.45;;;;;;;13.84;100.00;101655.19;5075976;28;20028;-35
2022/10/28 07:54:40;;;;;;;10.83;5.67;;;;;;;13.93;100.00;101652.97;5075143;28;20028;-36
2022/10/28 07:57:06;;;;;;;12.27;5.70;;;;;;;13.97;100.00;101644.13;5075697;28;20089;-35
2022/10/28 07:59:31;;;;;;;15.07;6.50;;;;;;;14.13;100.00;101645.31;5075002;28;20111;-36
2022/10/28 08:01:56;;;;;;;13.37;5.27;;;;;;;14.25;100.00;101654.31;5075117;28;20261;-35
2022/10/28 08:04:22;;;;;;;18.92;6.05;;;;;;;14.33;100.00;101648.50;5074993;28;20067;-35
2022/10/28 08:06:48;;;;;;;15.57;6.32;;;;;;;14.40;100.00;101642.97;5074606;28;20131;-35
2022/10/28 08:09:15;;;;;;;12.17;6.73;;;;;;;14.56;100.00;101649.63;5075447;28;20079;-35
2022/10/28 08:11:40;;;;;;;15.07;6.18;;;;;;;14.62;100.00;101637.78;5074811;28;20028;-35
2022/10/28 08:14:06;;;;;;;11.67;6.33;;;;;;;14.81;100.00;101647.44;5074656;28;20492;-36
2022/10/28 08:16:31;;;;;;;;;;;;;;;14.87;100.00;101649.19;5075258;28;20028;-36
2022/10/28 08:18:57;;;;;;;13.87;6.37;;;;;;;14.94;100.00;101638.19;5074847;28;19958;-35
2022/10/28 08:21:23;;;;;;;12.60;5.85;;;;;;;15.05;100.00;101648.22;5074648;28;20286;-36
2022/10/28 08:23:48;;;;;;;;;;;;;;;15.17;100.00;101665.34;5075802;28;20039;-36
2022/10/28 08:26:15;;;;;;;13.93;5.70;;;;;;;15.24;100.00;101659.78;5074811;28;19999;-35
2022/10/28 08:28:41;;;;;;;16.10;6.10;;;;;;;15.40;100.00;101664.44;5074657;28;20111;-35
2022/10/28 08:31:11;;;;;;;14.88;5.22;;;;;;;15.48;100.00;101671.41;5073591;28;20071;-36
2022/10/28 08:33:39;;;;;;;13.15;6.00;;;;;;;15.55;100.00;101663.09;5074753;28;20036;-36
2022/10/28 08:36:06;;;;;;;11.75;5.18;;;;;;;15.61;100.00;101668.38;5075223;28;20463;-36
2022/10/28 08:38:31;;;;;;;13.82;5.82;;;;;;;15.66;100.00;101665.81;5074592;28;20131;-35
2022/10/28 08:41:11;;;;;;;9.93;4.93;;;;;;;15.70;100.00;101661.50;5074411;28;20032;-35
2022/10/28 08:44:01;;;;;;;14.00;5.30;;;;;;;15.77;100.00;101666.81;5074998;28;20037;-36
2022/10/28 08:46:37;;;;;;;14.00;5.93;;;;;;;15.87;100.00;101669.72;5074245;28;20088;-36
2022/10/28 08:49:10;;;;;;;15.30;5.28;;;;;;;15.99;100.00;101663.34;5074549;28;20430;-35
2022/10/28 08:51:51;;;;;;;15.50;6.13;;;;;;;16.09;100.00;101661.59;5074521;28;20174;-36
2022/10/28 08:54:22;;;;;;;10.05;4.85;;;;;;;16.22;100.00;101647.63;5074031;28;20390;-36
2022/10/28 08:56:50;;;;;;;11.38;4.88;;;;;;;16.35;100.00;101645.66;5074627;28;20036;-35
2022/10/28 08:59:24;;;;;;;12.77;5.28;;;;;;;16.57;100.00;101645.69;5074663;28;20029;-36
2022/10/28 09:01:56;;;;;;;9.13;4.63;;;;;;;16.67;100.00;101657.56;5074010;28;20430;-35
2022/10/28 09:04:39;;;;;;;11.50;4.40;;;;;;;16.79;100.00;101654.78;5074093;28;20415;-36
2022/10/28 09:07:08;;;;;;;13.68;4.95;;;;;;;16.84;100.00;101656.75;5073670;28;20116;-36
2022/10/28 09:09:33;;;;;;;10.38;4.65;;;;;;;16.89;100.00;101654.09;5074049;28;20036;-36
2022/10/28 09:12:15;;;;;;;12.18;5.55;;;;;;;16.94;100.00;101667.81;5073772;28;20029;-36
2022/10/28 09:15:12;;;;;;;16.58;4.60;;;;;;;16.98;100.00;101658.88;5074464;28;20111;-36
2022/10/28 09:17:43;;;;;;;10.40;4.53;;;;;;;17.02;100.00;101655.59;5072608;28;20472;-36
2022/10/28 09:20:20;;;;;;;12.15;4.68;;;;;;;17.16;100.00;101659.59;5073590;28;20119;-36
2022/10/28 09:22:55;;;;;;;13.10;4.80;;;;;;;17.23;100.00;101662.97;5073551;28;20033;-36
2022/10/28 09:25:22;;;;;;;12.23;4.40;;;;;;;17.36;100.00;101659.84;5073485;28;20460;-36
2022/10/28 09:28:04;;;;;;;12.38;4.20;;;;;;;17.53;100.00;101667.97;5073526;28;20025;-36
2022/10/28 09:30:47;;;;;;;12.65;4.47;;;;;;;17.67;100.00;101669.19;5073439;28;20103;-36
2022/10/28 09:33:15;;;;;;;10.88;3.90;;;;;;;17.82;100.00;101671.28;5073158;28;20099;-36
2022/10/28 09:35:43;;;;;;;12.23;4.47;;;;;;;17.81;100.00;101653.19;5073864;28;20097;-36
2022/10/28 09:38:27;;;;;;;10.27;4.47;;;;;;;17.87;100.00;101671.34;5073523;28;20079;-36
2022/10/28 09:41:03;;;;;;;13.35;4.15;;;;;;;17.74;100.00;101650.69;5073492;28;20040;-36
2022/10/28 09:43:41;;;;;;;16.50;4.35;;;;;;;17.85;100.00;101678.97;5073689;28;20044;-36
2022/10/28 09:46:14;;;;;;;11.35;4.47;;;;;;;17.92;100.00;101673.28;5073662;28;20048;-36
2022/10/28 09:48:46;;;;;;;12.80;4.20;;;;;;;17.95;100.00;101680.97;5073685;28;20021;-36
2022/10/28 09:51:25;;;;;;;13.95;5.43;;;;;;;18.08;100.00;101677.81;5073417;28;20086;-35
2022/10/28 09:53:57;;;;;;;11.70;4.13;;;;;;;18.23;99.34;101663.41;5073808;28;20028;-35
2022/10/28 09:56:23;;;;;;;18.08;4.53;;;;;;;18.33;97.78;101663.50;5073857;28;20403;-36
2022/10/28 09:58:48;;;;;;;;;;;;;;;18.43;99.34;101674.50;5073471;28;20457;-36
2022/10/28 10:01:16;;;;;;;16.80;4.63;;;;;;;18.51;95.73;101665.00;5071711;28;19912;-36
2022/10/28 10:03:44;;;;;;;13.55;4.55;;;;;;;18.65;94.78;101676.31;5072701;28;20259;-36
2022/10/28 10:06:24;;;;;;;13.52;4.43;;;;;;;18.78;93.85;101682.16;5072925;28;20032;-36
2022/10/28 10:08:50;;;;;;;11.73;4.50;;;;;;;18.83;93.46;101680.53;5073449;28;20025;-36
2022/10/28 10:11:45;;;;;;;14.13;4.68;;;;;;;18.92;93.19;101674.28;5073281;28;20115;-36
2022/10/28 10:14:14;;;;;;;12.38;4.35;;;;;;;18.95;92.29;101672.94;5072799;28;20039;-36
2022/10/28 10:16:44;;;;;;;11.85;4.55;;;;;;;19.01;91.92;101666.38;5072611;28;20112;-36
2022/10/28 10:19:10;;;;;;;14.00;4.47;;;;;;;19.07;91.24;101673.53;5072373;28;20469;-36
2022/10/28 10:21:40;;;;;;;;;;;;;;;19.09;93.85;101676.00;5071890;28;20033;-36
2022/10/28 10:24:33;;;;;;;12.68;4.03;;;;;;;19.24;91.25;101665.91;5072709;28;19912;-36
2022/10/28 10:27:01;;;;;;;14.63;4.40;;;;;;;19.33;90.00;101666.22;5050490;28;20135;-36
2022/10/28 10:29:28;;;;;;;8.80;3.83;;;;;;;19.39;88.97;101664.31;5052550;28;20131;-36
2022/10/28 10:32:32;;;;;;;13.10;4.38;;;;;;;19.44;90.85;101667.91;5054489;28;20029;-36
2022/10/28 10:35:00;;;;;;;10.50;3.63;;;;;;;19.48;88.79;101659.97;5045221;28;20048;-36
2022/10/28 10:37:28;;;;;;;15.88;4.28;;;;;;;19.52;88.39;101661.03;5054293;28;20067;-36
2022/10/28 10:40:17;;;;;;;12.70;4.35;;;;;;;19.60;87.90;101652.31;5054191;28;20381;-36
2022/10/28 10:42:43;;;;;;;10.93;4.28;;;;;;;19.60;86.88;101641.34;5054432;28;20033;-36
2022/10/28 10:45:14;;;;;;;;;;;;;;;19.70;88.08;101649.59;5054734;28;20052;-36
2022/10/28 10:47:40;;;;;;;14.77;4.10;;;;;;;19.70;87.47;101646.84;5054437;28;19963;-36
2022/10/28 10:50:28;;;;;;;;;;;;;;;19.80;88.84;101643.28;5054482;28;20056;-36
2022/10/28 10:52:56;;;;;;;13.80;3.78;;;;;;;19.94;83.54;101633.41;5054697;28;19920;-36
2022/10/28 10:55:31;;;;;;;12.27;4.15;;;;;;;20.05;84.69;101635.06;5053983;28;20047;-36
2022/10/28 10:57:57;;;;;;;11.23;3.67;;;;;;;20.03;84.36;101647.41;5054692;28;20370;-36
2022/10/28 11:00:24;;;;;;;;;;;;;;;20.10;85.70;101642.47;5054296;28;20033;-36
2022/10/28 11:02:50;;;;;;;;;;;;;;;20.15;86.51;101647.94;5055059;28;19913;-36
2022/10/28 11:05:21;;;;;;;10.95;3.85;;;;;;;20.26;82.74;101646.88;5076447;28;20341;-36
2022/10/28 11:07:48;;;;;;;16.58;4.05;;;;;;;20.34;82.86;101656.44;5076570;28;20032;-36
2022/10/28 11:10:26;;;;;;;14.07;4.10;;;;;;;20.45;80.72;101643.53;5075745;28;20023;-36
2022/10/28 11:12:56;;;;;;;11.80;4.00;;;;;;;20.52;80.22;101633.09;5075700;28;20028;-36
2022/10/28 11:15:27;;;;;;;13.40;4.13;;;;;;;20.62;80.01;101627.56;5076074;28;20077;-36
2022/10/28 11:18:19;;;;;;;12.52;4.40;;;;;;;20.67;79.19;101635.81;5076881;28;20131;-36
2022/10/28 11:21:12;;;;;;;9.10;3.20;;;;;;;20.60;80.49;101632.53;5076043;28;20024;-36
2022/10/28 11:24:15;;;;;;;12.93;3.67;;;;;;;20.57;77.91;101628.41;5072731;28;20393;-36
2022/10/28 11:27:06;;;;;;;13.77;4.03;;;;;;;20.41;78.13;101593.81;5075371;28;20029;-36